Time;durP1;ratioP1;P1;durP2;ratioP2;P2;SDS_P1;SDS_P2;PMS_P1;PMS_P2;Temp;Humidity;BMP_temperature;BMP_pressure;BME280_temperature;BME280_humidity;BME280_pressure;Samples;Min_cycle;Max_cycle;Signal;HPM_P1;HPM_P2
2022/04/14 00:00:11;;;;;;;61.97;27.00;;;;;;;3.80;58.61;100976.79;1378916;88;21450;-80
2022/04/14 00:02:38;;;;;;;53.20;24.67;;;;;;;3.80;58.59;100975.01;1375049;90;22436;-81
2022/04/14 00:05:07;;;;;;;63.33;26.30;;;;;;;3.78;58.17;100969.48;1385345;88;22641;-81
2022/04/14 00:07:34;;;;;;;54.83;25.30;;;;;;;3.79;58.95;100977.70;1368924;89;21538;-81
2022/04/14 00:10:01;;;;;;;61.37;25.63;;;;;;;3.78;59.05;100972.09;1361097;90;22401;-81
2022/04/14 00:12:30;;;;;;;57.27;25.50;;;;;;;3.75;58.18;100979.66;1360887;91;22501;-81
2022/04/14 00:14:57;;;;;;;61.40;27.33;;;;;;;3.70;59.13;100974.32;1376170;89;21752;-95
2022/04/14 00:17:25;;;;;;;55.97;22.73;;;;;;;3.63;58.91;100973.02;1384027;89;21517;-95
2022/04/14 00:19:53;;;;;;;52.10;24.17;;;;;;;3.56;59.23;100976.43;1374827;90;21518;-96
2022/04/14 00:24:52;;;;;;;43.57;20.00;;;;;;;3.36;61.58;100970.56;1433625;83;21900;31
2022/04/14 00:27:21;;;;;;;44.65;17.92;;;;;;;3.17;62.20;100979.11;1392491;86;21893;31
2022/04/14 00:29:50;;;;;;;34.97;15.13;;;;;;;2.90;64.33;100981.47;1403982;84;21484;31
2022/04/14 00:32:21;;;;;;;33.70;16.73;;;;;;;2.68;62.67;100975.30;1402398;85;22038;31
2022/04/14 00:34:48;;;;;;;44.58;17.35;;;;;;;2.55;62.85;100979.02;1366266;91;22375;-93
2022/04/14 00:37:19;;;;;;;41.70;16.15;;;;;;;2.48;63.36;100972.45;1362657;91;21332;-95
2022/04/14 00:39:46;;;;;;;45.48;17.65;;;;;;;2.46;63.24;100970.38;1365286;89;21368;-94
2022/04/14 00:42:14;;;;;;;47.55;20.85;;;;;;;2.49;64.19;100981.96;1364386;90;22293;-94
2022/04/14 00:44:41;;;;;;;38.40;18.27;;;;;;;2.48;64.67;100984.20;1364461;91;21383;-95
2022/04/14 00:47:10;;;;;;;43.52;17.65;;;;;;;2.50;64.37;100979.72;1380539;87;21718;-93
2022/04/14 00:49:39;;;;;;;42.03;18.67;;;;;;;2.51;64.11;100981.42;1402036;84;21620;31
2022/04/14 00:52:13;;;;;;;52.70;20.37;;;;;;;2.47;64.61;100982.50;1414347;84;21462;31
2022/04/14 00:54:44;;;;;;;50.15;20.52;;;;;;;2.40;63.75;100972.02;1410019;86;22972;31
2022/04/14 01:02:34;;;;;;;42.93;20.72;;;;;;;2.32;64.36;100974.18;1409446;85;21757;31
2022/04/14 01:05:04;;;;;;;43.17;18.75;;;;;;;2.29;63.88;100975.66;1383907;87;21632;-94
2022/04/14 01:07:32;;;;;;;34.30;16.07;;;;;;;2.20;64.06;100972.59;1415561;84;21750;31
2022/04/14 01:10:05;;;;;;;36.55;18.98;;;;;;;2.19;62.57;100966.16;1385638;84;21734;31
2022/04/14 01:12:33;;;;;;;45.85;20.65;;;;;;;2.19;62.63;100981.37;1401587;84;21546;-92
2022/04/14 01:15:00;;;;;;;40.58;19.42;;;;;;;2.18;63.96;100974.44;1385401;89;21355;-93
2022/04/14 01:17:27;;;;;;;46.53;21.23;;;;;;;2.18;62.65;100978.82;1419332;87;21293;-93
2022/04/14 01:19:54;;;;;;;39.65;18.80;;;;;;;2.19;63.42;100970.08;1421301;87;21264;-94
2022/04/14 01:22:31;;;;;;;41.55;19.00;;;;;;;2.21;62.86;100974.27;1393564;85;22447;-93
2022/04/14 01:24:58;;;;;;;37.45;17.42;;;;;;;2.18;63.58;100982.73;1377076;89;21361;-94
2022/04/14 01:27:28;;;;;;;43.85;18.87;;;;;;;2.13;62.08;100975.16;1377431;90;21231;-93
2022/04/14 01:29:55;;;;;;;36.00;17.57;;;;;;;2.15;61.95;100973.77;1376822;90;22309;-93
2022/04/14 01:32:23;;;;;;;43.30;18.40;;;;;;;2.20;62.42;100983.05;1365756;91;22124;-92
2022/04/14 01:34:51;;;;;;;43.38;19.20;;;;;;;2.23;62.95;100982.05;1390911;89;22136;-94
2022/04/14 01:39:50;;;;;;;40.83;18.27;;;;;;;2.29;62.69;100976.95;1397790;84;21766;31
2022/04/14 01:42:18;;;;;;;35.40;15.95;;;;;;;2.33;62.99;100971.94;1420928;84;21808;31
2022/04/14 01:49:44;;;;;;;39.53;17.50;;;;;;;2.29;63.10;100980.88;1414301;85;21552;-94
2022/04/14 01:52:11;;;;;;;36.77;17.52;;;;;;;2.21;63.92;100982.11;1415684;87;21265;-94
2022/04/14 01:54:39;;;;;;;43.90;18.95;;;;;;;2.12;64.34;100987.81;1401645;87;21331;-93
2022/04/14 01:59:38;;;;;;;42.25;17.95;;;;;;;2.04;63.98;100988.67;1419643;84;21771;31
2022/04/14 02:02:06;;;;;;;38.80;18.00;;;;;;;2.06;62.82;100984.69;1420995;84;21566;31
2022/04/14 02:04:37;;;;;;;40.03;18.23;;;;;;;2.09;63.35;100980.61;1396454;85;23804;31
2022/04/14 02:07:09;;;;;;;37.50;16.53;;;;;;;2.07;63.94;100980.67;1417783;84;23133;31
2022/04/14 02:09:40;;;;;;;36.90;17.93;;;;;;;2.00;65.57;100975.41;1398033;85;23877;31
2022/04/14 02:12:09;;;;;;;43.00;20.17;;;;;;;1.94;64.46;100981.78;1380711;86;21717;-92
2022/04/14 02:14:38;;;;;;;38.85;19.27;;;;;;;1.86;65.44;100989.63;1369136;90;22346;-92
2022/04/14 02:17:06;;;;;;;39.90;17.52;;;;;;;1.80;66.23;100977.27;1369115;90;21326;-92
2022/04/14 02:19:33;;;;;;;46.33;19.70;;;;;;;1.76;66.76;100974.44;1369325;89;21273;-93
2022/04/14 02:22:00;;;;;;;34.78;17.25;;;;;;;1.65;66.30;100980.66;1349370;90;21260;-93
2022/04/14 02:24:27;;;;;;;40.88;18.65;;;;;;;1.62;66.34;100972.98;1370302;89;22738;-91
2022/04/14 02:26:55;;;;;;;37.55;19.70;;;;;;;1.62;66.85;100982.59;1368346;89;21355;-92
2022/04/14 02:29:22;;;;;;;43.28;18.27;;;;;;;1.51;67.33;100976.59;1335015;92;21268;-93
2022/04/14 02:31:49;;;;;;;41.40;19.15;;;;;;;1.50;67.05;100981.44;1370463;89;21310;-93
2022/04/14 02:34:16;;;;;;;42.43;19.20;;;;;;;1.49;66.63;100972.73;1370519;89;21216;-93
2022/04/14 02:36:43;;;;;;;43.42;21.12;;;;;;;1.50;67.34;100969.69;1370124;89;21290;-93
2022/04/14 02:41:42;;;;;;;34.15;16.45;;;;;;;1.56;66.56;100978.52;1402465;85;21757;31
2022/04/14 02:44:10;;;;;;;40.00;18.87;;;;;;;1.57;67.01;100978.89;1400104;84;24249;-90
2022/04/14 02:49:09;;;;;;;39.67;18.17;;;;;;;1.58;66.07;100979.26;1372419;85;21590;31
2022/04/14 02:51:36;;;;;;;41.77;18.87;;;;;;;1.59;67.05;100978.36;1442995;84;21573;-93
2022/04/14 02:54:03;;;;;;;46.77;20.68;;;;;;;1.58;66.26;100980.56;1411637;83;21514;-84
2022/04/14 02:59:30;;;;;;;38.25;18.25;;;;;;;1.55;67.02;100976.80;1420260;84;22158;31
2022/04/14 03:04:30;;;;;;;51.63;19.67;;;;;;;1.52;67.46;100979.57;1409576;86;21273;-94
2022/04/14 03:06:58;;;;;;;44.83;19.10;;;;;;;1.44;67.65;100985.63;1409782;86;22285;-90
2022/04/14 03:09:25;;;;;;;37.00;18.50;;;;;;;1.40;67.30;100978.88;1406553;86;21229;-93
2022/04/14 03:11:52;;;;;;;34.60;16.62;;;;;;;1.36;67.36;100982.11;1408539;87;21215;-93
2022/04/14 03:14:19;;;;;;;48.42;17.10;;;;;;;1.39;66.79;100978.50;1395518;87;21227;-92
2022/04/14 03:16:47;;;;;;;36.08;16.95;;;;;;;1.38;67.25;100977.64;1389068;89;21286;-95
2022/04/14 03:19:14;;;;;;;39.60;17.70;;;;;;;1.41;67.14;100980.56;1388900;89;21264;-94
2022/04/14 03:21:41;;;;;;;30.02;14.95;;;;;;;1.39;67.23;100978.50;1389440;89;21315;-95
2022/04/14 03:24:08;;;;;;;27.77;14.58;;;;;;;1.32;66.18;100986.63;1388130;89;21505;-93
2022/04/14 03:26:35;;;;;;;30.72;13.95;;;;;;;1.29;65.37;100986.75;1388850;89;21293;-94
2022/04/14 03:29:02;;;;;;;31.33;13.53;;;;;;;1.32;65.48;100981.42;1388490;89;21242;-94
2022/04/14 03:31:30;;;;;;;36.50;16.80;;;;;;;1.39;64.98;100977.20;1392653;87;22254;-95
2022/04/14 03:33:57;;;;;;;33.18;17.07;;;;;;;1.44;65.16;100984.31;1388657;89;21227;-94
2022/04/14 03:36:25;;;;;;;40.03;18.10;;;;;;;1.43;65.30;100982.17;1383774;90;21266;-94
2022/04/14 03:38:52;;;;;;;31.30;16.35;;;;;;;1.47;64.94;100982.89;1407103;87;22109;-94
2022/04/14 03:41:19;;;;;;;33.53;16.97;;;;;;;1.49;64.79;100978.42;1394995;89;22189;-94
2022/04/14 03:43:46;;;;;;;28.75;15.68;;;;;;;1.48;65.08;100973.67;1408285;87;21259;-93
2022/04/14 03:48:43;;;;;;;41.85;16.75;;;;;;;1.51;64.89;100988.33;1391220;86;22469;-95
2022/04/14 03:51:14;;;;;;;34.60;16.77;;;;;;;1.57;64.13;100988.86;1390503;85;21569;31
2022/04/14 03:53:42;;;;;;;32.10;16.52;;;;;;;1.66;63.88;100992.77;1418694;83;21766;-94
2022/04/14 03:56:11;;;;;;;32.42;14.23;;;;;;;1.71;63.80;100993.39;1357745;86;21587;-93
2022/04/14 03:58:38;;;;;;;29.85;14.98;;;;;;;1.73;63.96;100988.95;1428361;86;21279;-94
2022/04/14 04:03:37;;;;;;;30.62;15.83;;;;;;;1.72;64.10;100989.85;1399949;84;23813;31
2022/04/14 04:06:04;;;;;;;28.12;15.43;;;;;;;1.72;64.86;100993.77;1407140;85;21890;-94
2022/04/14 04:08:35;;;;;;;29.05;14.05;;;;;;;1.71;65.11;100994.70;1414989;84;21565;31
2022/04/14 04:11:02;;;;;;;27.75;15.80;;;;;;;1.73;64.86;101001.16;1429559;84;22561;31
2022/04/14 04:13:31;;;;;;;29.82;14.65;;;;;;;1.74;66.12;101001.06;1403641;85;21757;31
2022/04/14 04:18:35;;;;;;;27.65;15.43;;;;;;;1.75;66.04;100997.52;1402290;85;21499;31
2022/04/14 04:21:05;;;;;;;26.82;14.13;;;;;;;1.76;66.50;101003.61;1435468;86;21365;-93
2022/04/14 04:23:32;;;;;;;26.87;14.80;;;;;;;1.74;66.04;101007.59;1432321;86;21246;-94
2022/04/14 04:25:59;;;;;;;33.13;15.43;;;;;;;1.77;65.42;101007.90;1432311;86;21430;-93
2022/04/14 04:28:30;;;;;;;30.65;15.70;;;;;;;1.82;65.23;101006.37;1432664;86;21304;-96
2022/04/14 04:30:55;;;;;;;26.82;14.40;;;;;;;1.91;65.38;101009.83;1412499;86;21386;-94
2022/04/14 04:33:23;;;;;;;49.98;17.57;;;;;;;1.98;65.31;101005.49;1429647;86;21357;-89
2022/04/14 04:35:51;;;;;;;35.73;16.70;;;;;;;2.04;65.04;101009.56;1412297;86;21378;-92
2022/04/14 04:38:19;;;;;;;32.25;15.05;;;;;;;2.12;64.52;101006.09;1428037;86;21306;-90
2022/04/14 04:40:46;;;;;;;31.45;14.53;;;;;;;2.24;64.75;101008.09;1427067;86;21415;-88
2022/04/14 04:43:16;;;;;;;33.65;16.45;;;;;;;2.31;64.79;101002.08;1442776;84;22202;-88
2022/04/14 04:45:44;;;;;;;33.67;15.65;;;;;;;2.38;64.34;101010.42;1415029;87;21401;-88
2022/04/14 04:48:11;;;;;;;29.80;14.38;;;;;;;2.48;63.69;101012.95;1427828;86;21299;-91
2022/04/14 04:50:38;;;;;;;38.30;15.72;;;;;;;2.59;63.60;101017.14;1431053;86;22245;-93
2022/04/14 04:53:05;;;;;;;45.90;15.90;;;;;;;2.66;63.54;101026.33;1440216;84;21199;-92
2022/04/14 04:55:33;;;;;;;35.23;13.25;;;;;;;2.73;63.44;101028.14;1443324;84;21305;-94
2022/04/14 04:58:00;;;;;;;34.73;13.90;;;;;;;2.84;63.10;101034.10;1430647;86;21445;-93
2022/04/14 05:00:27;;;;;;;33.10;15.13;;;;;;;2.94;62.96;101022.23;1432715;86;21459;-94
2022/04/14 05:02:56;;;;;;;31.70;15.17;;;;;;;3.07;62.52;101027.14;1433708;86;21635;-93
2022/04/14 05:05:25;;;;;;;34.20;16.37;;;;;;;3.18;61.72;101034.88;1433106;86;22846;-93
2022/04/14 05:07:54;;;;;;;35.75;17.98;;;;;;;3.30;61.82;101035.02;1439286;84;21594;-94
2022/04/14 05:10:21;;;;;;;34.43;19.33;;;;;;;3.48;61.85;101032.29;1433347;86;21352;-93
2022/04/14 05:12:48;;;;;;;35.20;17.50;;;;;;;3.68;61.62;101033.77;1433216;86;21433;-95
2022/04/14 05:15:15;;;;;;;37.90;17.87;;;;;;;3.81;60.86;101029.52;1432193;86;22279;-93
2022/04/14 05:17:42;;;;;;;36.03;19.70;;;;;;;3.93;60.30;101034.03;1413570;87;21597;-93
2022/04/14 05:20:11;;;;;;;33.63;16.70;;;;;;;4.04;60.01;101032.09;1430862;85;21651;-95
2022/04/14 05:22:38;;;;;;;33.17;18.87;;;;;;;4.12;59.58;101026.41;1437057;84;21498;-90
2022/04/14 05:25:06;;;;;;;33.37;15.87;;;;;;;4.23;59.60;101024.84;1440001;84;21362;-89
2022/04/14 05:27:34;;;;;;;38.87;17.60;;;;;;;4.36;59.65;101024.09;1430250;85;21439;-93
2022/04/14 05:30:01;;;;;;;27.90;14.37;;;;;;;4.53;59.35;101028.66;1442960;85;22272;-94
2022/04/14 05:32:29;;;;;;;20.87;11.63;;;;;;;4.70;59.26;101031.56;1431930;84;21540;-94
2022/04/14 05:34:56;;;;;;;22.77;13.80;;;;;;;4.87;57.89;101029.69;1408038;87;21660;-88
2022/04/14 05:37:23;;;;;;;20.03;11.77;;;;;;;5.03;57.13;101029.54;1428368;84;21296;-85
2022/04/14 05:39:50;;;;;;;24.97;11.20;;;;;;;5.22;57.35;101039.25;1444770;84;22433;-85
2022/04/14 05:42:17;;;;;;;19.27;11.23;;;;;;;5.28;55.11;101040.16;1432139;85;21562;-86
2022/04/14 05:44:44;;;;;;;18.57;10.17;;;;;;;5.46;55.60;101045.16;1434214;85;21519;-86
2022/04/14 05:47:12;;;;;;;23.53;11.47;;;;;;;5.56;54.62;101035.76;1419509;85;22524;-85
2022/04/14 05:49:39;;;;;;;22.90;11.37;;;;;;;5.83;53.83;101045.73;1400399;87;21590;-85
2022/04/14 05:52:07;;;;;;;26.43;10.40;;;;;;;5.97;53.97;101044.02;1407447;88;23188;-86
2022/04/14 05:54:34;;;;;;;20.57;11.20;;;;;;;6.12;53.80;101046.92;1419389;86;21696;-86
2022/04/14 05:57:01;;;;;;;21.43;11.30;;;;;;;6.12;53.80;101046.92;1417123;86;22782;-86
2022/04/14 05:59:28;;;;;;;21.23;10.90;;;;;;;6.30;54.21;101044.38;1434131;85;22567;-86
2022/04/14 06:01:55;;;;;;;20.87;11.90;;;;;;;6.48;53.31;101037.48;1422218;86;21934;-85
2022/04/14 06:04:23;;;;;;;22.50;11.97;;;;;;;6.67;53.16;101038.33;1425677;86;21695;-86
2022/04/14 06:06:50;;;;;;;17.93;10.43;;;;;;;6.82;53.35;101035.96;1416966;86;23426;-86
2022/04/14 06:09:17;;;;;;;22.57;11.73;;;;;;;7.00;53.56;101028.54;1409735;86;22805;-86
2022/04/14 06:11:44;;;;;;;19.97;10.67;;;;;;;7.12;52.02;101042.61;1416964;86;21853;-86
2022/04/14 06:14:11;;;;;;;17.43;12.10;;;;;;;7.24;52.24;101041.23;1434351;87;21922;-87
2022/04/14 06:16:38;;;;;;;26.03;12.80;;;;;;;7.41;51.94;101040.50;1433230;85;21898;-87
2022/04/14 06:19:05;;;;;;;27.43;11.73;;;;;;;7.52;51.32;101039.23;1423404;85;21984;-87
2022/04/14 06:21:32;;;;;;;22.70;12.53;;;;;;;7.64;51.63;101042.27;1426579;86;22094;-86
2022/04/14 06:23:59;;;;;;;23.63;11.83;;;;;;;7.98;51.27;101037.61;1426518;86;21294;-85
2022/04/14 06:26:26;;;;;;;16.67;10.40;;;;;;;7.98;51.27;101037.61;1424885;85;21349;-88
2022/04/14 06:28:53;;;;;;;21.00;11.07;;;;;;;8.15;50.78;101038.48;1427210;86;21286;-87
2022/04/14 06:31:20;;;;;;;21.00;11.30;;;;;;;8.34;50.57;101036.13;1426441;86;22143;-87
2022/04/14 06:33:48;;;;;;;18.30;11.70;;;;;;;8.56;49.93;101038.43;1424771;86;21329;-86
2022/04/14 06:36:15;;;;;;;22.47;12.03;;;;;;;8.77;49.67;101029.30;1426864;86;21292;-92
2022/04/14 06:38:42;;;;;;;26.00;12.13;;;;;;;8.94;49.10;101034.08;1405171;88;21400;-82
2022/04/14 06:41:09;;;;;;;19.60;12.07;;;;;;;9.10;48.36;101034.20;1424370;86;21248;-80
2022/04/14 06:43:36;;;;;;;19.33;10.73;;;;;;;9.31;48.64;101031.13;1428289;84;21270;-79
2022/04/14 06:46:03;;;;;;;21.00;10.83;;;;;;;9.49;47.91;101029.64;1423344;86;21283;-79
2022/04/14 06:48:31;;;;;;;24.73;11.50;;;;;;;9.63;46.73;101027.65;1426745;84;21343;-79
2022/04/14 06:50:59;;;;;;;18.27;10.63;;;;;;;9.83;47.66;101029.47;1427270;86;21250;-77
2022/04/14 06:53:27;;;;;;;21.80;11.60;;;;;;;10.07;48.15;101031.88;1426998;85;21279;-77
2022/04/14 06:55:55;;;;;;;22.13;12.90;;;;;;;10.24;46.56;101026.95;1425673;86;22214;-77
2022/04/14 06:58:22;;;;;;;18.57;10.27;;;;;;;10.45;46.92;101032.27;1425119;86;21467;-77
2022/04/14 07:00:49;;;;;;;18.60;11.83;;;;;;;10.63;46.04;101025.86;1421827;86;21401;-79
2022/04/14 07:03:16;;;;;;;16.87;10.07;;;;;;;10.89;46.59;101022.25;1425304;86;22186;-78
2022/04/14 07:05:43;;;;;;;16.27;10.43;;;;;;;11.16;46.23;101030.38;1425567;86;22121;-77
2022/04/14 07:08:10;;;;;;;21.10;10.83;;;;;;;11.33;43.69;101028.05;1430296;86;21263;-78
2022/04/14 07:10:37;;;;;;;18.93;11.33;;;;;;;11.50;44.22;101022.06;1417336;87;21330;-78
2022/04/14 07:13:04;;;;;;;20.23;10.73;;;;;;;11.68;42.17;101024.84;1417941;86;21263;-77
2022/04/14 07:15:32;;;;;;;16.97;10.50;;;;;;;11.78;42.06;101018.23;1418916;86;21219;-77
2022/04/14 07:18:01;;;;;;;17.00;10.70;;;;;;;11.96;42.94;101017.88;1425347;86;21401;-77
2022/04/14 07:20:30;;;;;;;20.77;11.33;;;;;;;12.17;40.74;101019.05;1424431;85;21329;-78
2022/04/14 07:22:59;;;;;;;18.87;9.93;;;;;;;12.39;41.88;101017.84;1421615;86;21308;-77
2022/04/14 07:25:28;;;;;;;17.40;11.83;;;;;;;12.67;42.39;101017.89;1421584;85;21307;-77
2022/04/14 07:27:55;;;;;;;18.60;11.57;;;;;;;12.91;41.57;101018.66;1425321;85;21441;-78
2022/04/14 07:30:26;;;;;;;22.53;12.77;;;;;;;13.07;40.72;101018.36;1423357;85;21239;-78
2022/04/14 07:32:54;;;;;;;17.10;10.50;;;;;;;13.21;39.00;101020.17;1421055;86;21214;-77
2022/04/14 07:35:22;;;;;;;15.83;10.57;;;;;;;13.23;39.13;101012.87;1420547;85;21276;-77
2022/04/14 07:37:50;;;;;;;28.20;12.90;;;;;;;13.35;38.87;101014.84;1419760;86;21241;-78
2022/04/14 07:40:17;;;;;;;25.73;11.17;;;;;;;13.53;39.66;101019.19;1421166;86;21290;-78
2022/04/14 07:42:46;;;;;;;15.30;11.10;;;;;;;13.69;39.22;101022.97;1421186;86;21279;-77
2022/04/14 07:45:15;;;;;;;21.97;10.57;;;;;;;13.88;38.60;101029.45;1435103;86;21323;-77
2022/04/14 07:47:44;;;;;;;19.93;10.67;;;;;;;13.90;38.04;101023.48;1428108;85;22209;-87
2022/04/14 07:50:15;;;;;;;17.57;10.40;;;;;;;13.99;37.85;101023.05;1404419;87;22677;-87
2022/04/14 07:52:52;;;;;;;16.77;10.75;;;;;;;14.08;36.79;101025.27;1420968;86;21283;-86
2022/04/14 07:55:25;;;;;;;15.43;8.87;;;;;;;14.22;37.69;101019.38;1431954;85;21270;-86
2022/04/14 07:57:55;;;;;;;22.43;9.27;;;;;;;14.40;37.63;101022.80;1436386;86;21354;-86
2022/04/14 08:00:24;;;;;;;22.32;9.55;;;;;;;14.55;37.42;101023.08;1424950;85;22343;-86
2022/04/14 08:02:58;;;;;;;18.10;9.93;;;;;;;14.75;37.15;101022.34;1423692;85;21291;-86
2022/04/14 08:05:34;;;;;;;12.37;8.90;;;;;;;14.97;36.31;101020.09;1397920;88;21389;-85
2022/04/14 08:08:08;;;;;;;16.90;8.97;;;;;;;15.05;34.30;101019.63;1406824;86;21405;-85
2022/04/14 08:10:35;;;;;;;14.67;8.60;;;;;;;15.05;34.46;101016.96;1391927;89;21316;-85
2022/04/14 08:13:03;;;;;;;16.83;8.43;;;;;;;15.19;34.62;101014.17;1397069;88;21257;-86
2022/04/14 08:15:32;;;;;;;12.57;8.40;;;;;;;15.39;34.51;101021.34;1413632;88;21385;-82
2022/04/14 08:17:59;;;;;;;21.60;9.00;;;;;;;15.70;35.02;101028.75;1415690;86;21259;-82
2022/04/14 08:20:28;;;;;;;78.97;10.90;;;;;;;15.97;34.46;101028.92;1418613;86;21243;-79
2022/04/14 08:22:58;;;;;;;18.27;9.20;;;;;;;16.14;34.14;101030.58;1402181;89;21238;-80
2022/04/14 08:25:31;;;;;;;13.23;8.40;;;;;;;16.36;33.17;101034.35;1410478;87;21326;-79
2022/04/14 08:28:02;;;;;;;18.07;8.40;;;;;;;16.59;33.00;101031.78;1395044;89;21245;-80
2022/04/14 08:30:32;;;;;;;32.03;8.90;;;;;;;16.75;32.24;101018.05;1395378;88;21288;-80
2022/04/14 08:33:03;;;;;;;16.45;8.23;;;;;;;16.89;31.89;101022.70;1396818;88;21289;-80
2022/04/14 08:35:32;;;;;;;13.68;7.58;;;;;;;16.90;31.33;101022.50;1401691;88;21289;-80
2022/04/14 08:38:02;;;;;;;10.77;7.63;;;;;;;16.99;31.55;101011.27;1388674;89;21281;-80
2022/04/14 08:40:37;;;;;;;15.35;8.15;;;;;;;17.17;31.37;101008.31;1403291;87;21268;-80
2022/04/14 08:43:07;;;;;;;13.20;7.80;;;;;;;17.09;30.49;101011.89;1403613;87;21489;-80
2022/04/14 08:45:42;;;;;;;13.72;7.90;;;;;;;17.20;30.57;101009.30;1413468;86;21296;-80
2022/04/14 08:48:09;;;;;;;10.87;7.17;;;;;;;17.31;28.81;101013.41;1397755;86;22312;-80
2022/04/14 08:50:36;;;;;;;11.43;7.27;;;;;;;16.95;28.39;101012.63;1419683;85;22367;-80
2022/04/14 08:53:05;;;;;;;17.27;7.40;;;;;;;17.20;30.57;101007.95;1416153;86;22217;-80
2022/04/14 08:55:32;;;;;;;16.03;6.97;;;;;;;17.49;30.38;101012.63;1432687;85;21289;-80
2022/04/14 08:58:00;;;;;;;15.37;7.23;;;;;;;17.62;28.11;101007.18;1423163;85;21265;-80
2022/04/14 09:00:27;;;;;;;9.57;6.47;;;;;;;17.53;26.52;101005.90;1429494;85;21266;-79
2022/04/14 09:02:57;;;;;;;11.43;6.20;;;;;;;17.58;27.60;101006.72;1420577;85;21199;-80
2022/04/14 09:05:24;;;;;;;12.90;5.20;;;;;;;17.72;27.99;101007.75;1428554;86;21370;-80
2022/04/14 09:07:52;;;;;;;12.83;5.40;;;;;;;17.85;27.75;101009.86;1414906;86;22660;-80
2022/04/14 09:10:20;;;;;;;7.17;5.57;;;;;;;17.49;26.40;101003.27;1395445;87;21222;-80
2022/04/14 09:12:49;;;;;;;9.70;5.40;;;;;;;17.78;28.13;101006.58;1414034;87;21318;-80
2022/04/14 09:15:17;;;;;;;10.67;4.70;;;;;;;18.12;27.95;100999.05;1413945;87;21266;-80
2022/04/14 09:17:44;;;;;;;9.90;5.67;;;;;;;18.46;27.93;101000.67;1423183;87;21325;-81
2022/04/14 09:20:37;;;;;;;12.43;5.63;;;;;;;18.76;26.88;100985.95;1425730;85;21241;-80
2022/04/14 09:23:27;;;;;;;7.33;4.67;;;;;;;18.93;26.69;100990.56;1426283;85;21251;-80
2022/04/14 09:26:14;;;;;;;8.60;5.62;;;;;;;19.12;25.05;100992.64;1413971;87;22234;-80
2022/04/14 09:29:10;;;;;;;9.17;5.77;;;;;;;19.16;25.75;100987.72;1422425;88;21244;-80
2022/04/14 09:31:49;;;;;;;6.47;4.90;;;;;;;19.44;26.24;100985.63;1400532;88;21391;-80
2022/04/14 09:34:19;;;;;;;8.17;5.70;;;;;;;19.39;22.09;100979.00;1414272;87;22188;-80
2022/04/14 09:37:11;;;;;;;11.33;5.10;;;;;;;19.30;24.97;100973.42;1410689;87;21295;-80
2022/04/14 09:40:01;;;;;;;10.93;5.10;;;;;;;19.19;22.78;100969.92;1418113;86;21447;-80
2022/04/14 09:42:34;;;;;;;13.98;5.87;;;;;;;19.30;24.65;100970.73;1427150;86;22129;-80
2022/04/14 09:45:28;;;;;;;12.23;5.00;;;;;;;19.55;25.08;100965.81;1387923;88;22159;-80
2022/04/14 09:48:10;;;;;;;12.83;3.93;;;;;;;19.85;25.28;100971.02;1433082;85;21420;-80
2022/04/14 09:50:39;;;;;;;10.57;4.30;;;;;;;20.05;24.64;100965.80;1422190;90;21421;-80
2022/04/14 09:53:15;;;;;;;9.23;4.90;;;;;;;20.25;24.47;100966.77;1418664;85;21238;-80
2022/04/14 09:55:55;;;;;;;7.62;4.87;;;;;;;20.51;24.26;100955.33;1424036;85;21149;-80
2022/04/14 09:58:26;;;;;;;8.20;4.03;;;;;;;20.46;23.84;100956.95;1434410;88;21325;-80
2022/04/14 10:00:57;;;;;;;6.65;3.67;;;;;;;20.56;23.90;100954.73;1429534;85;21265;-80
2022/04/14 10:03:30;;;;;;;5.33;3.83;;;;;;;20.67;23.80;100952.00;1419230;88;21471;-80
2022/04/14 10:06:01;;;;;;;6.08;3.90;;;;;;;20.53;23.65;100951.10;1420010;86;22234;-80
2022/04/14 10:08:29;;;;;;;;;;;;;;;20.57;23.91;100953.72;1423394;85;21399;-80
2022/04/14 10:11:07;;;;;;;7.37;3.72;;;;;;;20.82;24.08;100960.73;1432173;85;20360;-80
2022/04/14 10:13:38;;;;;;;8.58;4.12;;;;;;;20.93;23.13;100959.32;1428855;85;21391;-80
2022/04/14 10:16:09;;;;;;;8.03;4.25;;;;;;;20.68;21.93;100950.95;1424037;86;21169;-80
2022/04/14 10:18:39;;;;;;;8.05;4.90;;;;;;;20.63;23.17;100951.58;1431484;85;21177;-80
2022/04/14 10:21:06;;;;;;;7.65;4.05;;;;;;;20.29;21.78;100955.10;1414629;84;22160;-81
2022/04/14 10:23:34;;;;;;;6.85;4.17;;;;;;;20.27;22.03;100950.44;1430020;85;21280;-80
2022/04/14 10:26:02;;;;;;;7.83;4.95;;;;;;;20.12;22.34;100938.47;1438915;85;21257;-80
2022/04/14 10:28:30;;;;;;;13.48;4.95;;;;;;;20.41;22.79;100942.75;1439352;85;21462;-80
2022/04/14 10:30:58;;;;;;;10.95;5.20;;;;;;;20.70;23.82;100940.31;1439677;85;21302;-80
2022/04/14 10:33:30;;;;;;;10.68;5.30;;;;;;;20.94;22.37;100936.75;1437268;85;21537;-80
2022/04/14 10:35:57;;;;;;;9.48;5.33;;;;;;;20.85;22.66;100936.11;1439769;85;21316;-80
2022/04/14 10:38:37;;;;;;;16.52;4.70;;;;;;;20.93;22.33;100939.97;1439638;85;21442;-80
2022/04/14 10:41:13;;;;;;;9.43;5.47;;;;;;;20.93;22.19;100941.83;1439357;85;21403;-80
2022/04/14 10:43:46;;;;;;;11.38;4.45;;;;;;;20.79;22.07;100930.20;1430680;85;22313;-81
2022/04/14 10:46:17;;;;;;;73.57;7.22;;;;;;;20.92;21.04;100930.77;1430092;85;21324;-83
2022/04/14 10:48:45;;;;;;;12.85;5.95;;;;;;;21.10;22.60;100930.17;1430689;85;21472;-83
2022/04/14 10:51:29;;;;;;;18.00;5.03;;;;;;;21.13;22.04;100918.48;1430988;85;21286;-83
2022/04/14 10:54:05;;;;;;;9.88;5.53;;;;;;;21.22;21.99;100923.14;1430390;85;21369;-83
2022/04/14 10:56:43;;;;;;;8.23;4.20;;;;;;;21.24;21.97;100924.30;1430417;85;21446;-83
2022/04/14 10:59:33;;;;;;;14.03;5.17;;;;;;;21.00;20.80;100925.17;1431458;85;21295;-83
2022/04/14 11:02:04;;;;;;;11.38;5.65;;;;;;;20.94;22.39;100921.47;1436298;85;21293;-84
2022/04/14 11:04:52;;;;;;;9.23;5.70;;;;;;;21.29;23.27;100915.06;1430842;85;21250;-83
2022/04/14 11:07:22;;;;;;;6.90;5.20;;;;;;;21.65;22.71;100919.25;1430814;85;22233;-84
2022/04/14 11:10:00;;;;;;;11.65;5.28;;;;;;;21.81;23.18;100912.91;1419882;86;21346;-84
2022/04/14 11:12:41;;;;;;;9.50;5.30;;;;;;;22.09;22.72;100918.53;1430373;85;21384;-82
2022/04/14 11:15:09;;;;;;;11.08;5.42;;;;;;;22.30;22.05;100920.18;1427953;85;22498;-83
2022/04/14 11:17:48;;;;;;;8.55;5.28;;;;;;;22.36;21.16;100918.50;1429866;85;21435;-84
2022/04/14 11:20:23;;;;;;;9.98;5.47;;;;;;;22.32;21.48;100912.69;1414426;87;21398;-85
2022/04/14 11:23:24;;;;;;;15.20;5.75;;;;;;;22.36;21.28;100908.54;1408146;86;22338;-84
2022/04/14 11:26:06;;;;;;;17.62;5.67;;;;;;;22.25;20.21;100915.42;1401708;87;21525;-83
2022/04/14 11:28:39;;;;;;;10.72;5.60;;;;;;;22.40;20.80;100909.76;1402070;87;21288;-84
2022/04/14 11:31:23;;;;;;;7.08;5.40;;;;;;;22.51;21.91;100902.34;1401882;87;21370;-85
2022/04/14 11:33:55;;;;;;;10.20;5.47;;;;;;;22.57;20.82;100902.01;1402182;87;21363;-85
2022/04/14 11:36:25;;;;;;;9.43;5.40;;;;;;;22.61;20.17;100895.65;1402075;87;21504;-85
2022/04/14 11:39:08;;;;;;;15.15;5.12;;;;;;;22.72;20.90;100893.63;1402102;87;21407;-85
2022/04/14 11:41:50;;;;;;;11.80;5.83;;;;;;;22.62;20.22;100890.05;1402641;87;21369;-86
2022/04/14 11:44:24;;;;;;;11.83;6.30;;;;;;;22.67;19.30;100889.39;1402209;87;21525;-86
2022/04/14 11:46:54;;;;;;;12.25;5.30;;;;;;;22.33;20.27;100884.70;1401890;87;21406;-83
2022/04/14 11:49:24;;;;;;;;;;;;;;;22.59;21.92;100886.97;1404637;87;21251;-84
2022/04/14 11:51:56;;;;;;;11.33;6.17;;;;;;;22.69;21.35;100883.27;1407047;87;20331;-84
2022/04/14 11:54:34;;;;;;;12.68;5.37;;;;;;;22.41;20.38;100875.02;1407576;86;21497;-83
2022/04/14 11:57:07;;;;;;;14.28;5.53;;;;;;;22.58;22.09;100872.62;1407870;87;21266;-83
2022/04/14 11:59:44;;;;;;;11.10;6.35;;;;;;;22.95;21.92;100874.20;1407613;86;21539;-84
2022/04/14 12:02:26;;;;;;;13.20;7.08;;;;;;;23.18;20.78;100866.34;1407848;87;21303;-83
2022/04/14 12:04:56;;;;;;;12.37;6.00;;;;;;;23.19;20.66;100865.84;1407243;87;21236;-84
2022/04/14 12:07:30;;;;;;;10.90;5.22;;;;;;;22.78;19.93;100858.20;1407815;87;22455;-84